PWSweather.com
Personal Weather Stations
Station Observations
KMNMADEL2
Andys Live Weather Stations, Madelia, MN 56062

Andys Live Weather StationsMadelia, MN 56062

Lat: 44.04636, Lon: -94.4163437

Elevation: 1006

Station Type: Wireless Davis Instruments Vantage Pro2 Plus

http://www.madeliasliveweather.com/

Latest ConditionsUpdated 12:05:01 PM CST Wednesday, Jan 28, 2015
Currently Today's Max Today's Min Today's Average
Temperature 33.1°F0.6°C 33.1°F0.6°C 31.3°F-0.4°C 32.1°F0.1°C
Dew Point 30.8°F-0.7°C 30.8°F-0.7°C 29.3°F-1.5°C 29.8°F-1.2°C
Winds 7.0 mph ESE11.3 kmh ESE 19.0 mph SE30.6 kmh SE - 8.1 mph 13.0 kmh
Wind Gusts 15.0 mph24.1 kmh 23.0 mph37.0 kmh - -
Humidity 91% 92% 91% 91%
Pressure 29.87 in1011.5 mb 30.08 in1018.6 mb 29.87 in1011.5 mb -
Hour Temp Dew Point Humidity Winds Wind Gusts Pressure Precip Precip Rate Daily Precip Total
12:05 PM 33.1°F0.6°C 30.8°F-0.7°C 91% 7.0 mph ESE11.3 kmh ESE 15.0 mph24.1 kmh 29.87 in1011.5 mb 0.00 in0.0 mm 0.00 in/hr0.0 mm/hr 0.00 in0.0 mm
12:00 PM 33.0°F0.6°C 30.7°F-0.7°C 91% 7.0 mph SSE11.3 kmh SSE 15.0 mph24.1 kmh 29.87 in1011.5 mb 0.00 in0.0 mm 0.00 in/hr0.0 mm/hr 0.00 in0.0 mm
11:55 AM 33.0°F0.6°C 30.7°F-0.7°C 91% 4.0 mph SSE6.4 kmh SSE 18.0 mph29.0 kmh 29.88 in1011.9 mb 0.00 in0.0 mm 0.00 in/hr0.0 mm/hr 0.00 in0.0 mm
11:50 AM 32.9°F0.5°C 30.6°F-0.8°C 91% 12.0 mph SSE19.3 kmh SSE 18.0 mph29.0 kmh 29.88 in1011.9 mb 0.00 in0.0 mm 0.00 in/hr0.0 mm/hr 0.00 in0.0 mm
11:45 AM 32.8°F0.4°C 30.5°F-0.8°C 91% 7.0 mph SE11.3 kmh SE 18.0 mph29.0 kmh 29.88 in1011.9 mb 0.00 in0.0 mm 0.00 in/hr0.0 mm/hr 0.00 in0.0 mm
11:40 AM 32.8°F0.4°C 30.5°F-0.8°C 91% 13.0 mph SSE20.9 kmh SSE 16.0 mph25.7 kmh 29.88 in1011.9 mb 0.00 in0.0 mm 0.00 in/hr0.0 mm/hr 0.00 in0.0 mm
11:35 AM 32.7°F0.4°C 30.4°F-0.9°C 91% 4.0 mph SSE6.4 kmh SSE 15.0 mph24.1 kmh 29.89 in1012.2 mb 0.00 in0.0 mm 0.00 in/hr0.0 mm/hr 0.00 in0.0 mm
11:30 AM 32.7°F0.4°C 30.4°F-0.9°C 91% 14.0 mph ESE22.5 kmh ESE 14.0 mph22.5 kmh 29.89 in1012.2 mb 0.00 in0.0 mm 0.00 in/hr0.0 mm/hr 0.00 in0.0 mm
11:25 AM 32.6°F0.3°C 30.3°F-0.9°C 91% 8.0 mph ESE12.9 kmh ESE 22.0 mph35.4 kmh 29.89 in1012.2 mb 0.00 in0.0 mm 0.00 in/hr0.0 mm/hr 0.00 in0.0 mm
11:20 AM 32.6°F0.3°C 30.3°F-0.9°C 91% 7.0 mph SSE11.3 kmh SSE 20.0 mph32.2 kmh 29.89 in1012.2 mb 0.00 in0.0 mm 0.00 in/hr0.0 mm/hr 0.00 in0.0 mm
11:15 AM 32.6°F0.3°C 30.3°F-0.9°C 91% 12.0 mph SE19.3 kmh SE 20.0 mph32.2 kmh 29.89 in1012.2 mb 0.00 in0.0 mm 0.00 in/hr0.0 mm/hr 0.00 in0.0 mm
11:10 AM 32.5°F0.3°C 30.2°F-1.0°C 91% 11.0 mph S17.7 kmh S 20.0 mph32.2 kmh 29.90 in1012.5 mb 0.00 in0.0 mm 0.00 in/hr0.0 mm/hr 0.00 in0.0 mm
11:05 AM 32.4°F0.2°C 30.1°F-1.1°C 91% 16.0 mph SE25.7 kmh SE 20.0 mph32.2 kmh 29.90 in1012.5 mb 0.00 in0.0 mm 0.00 in/hr0.0 mm/hr 0.00 in0.0 mm
11:00 AM 32.3°F0.2°C 30.0°F-1.1°C 91% 13.0 mph SE20.9 kmh SE 15.0 mph24.1 kmh 29.90 in1012.5 mb 0.00 in0.0 mm 0.00 in/hr0.0 mm/hr 0.00 in0.0 mm
10:55 AM 32.3°F0.2°C 30.0°F-1.1°C 91% 5.0 mph SE8.0 kmh SE 22.0 mph35.4 kmh 29.90 in1012.5 mb 0.00 in0.0 mm 0.00 in/hr0.0 mm/hr 0.00 in0.0 mm
10:50 AM 32.4°F0.2°C 30.1°F-1.1°C 91% 5.0 mph SSE8.0 kmh SSE 22.0 mph35.4 kmh 29.90 in1012.5 mb 0.00 in0.0 mm 0.00 in/hr0.0 mm/hr 0.00 in0.0 mm
10:45 AM 32.4°F0.2°C 30.1°F-1.1°C 91% 8.0 mph SE12.9 kmh SE 22.0 mph35.4 kmh 29.91 in1012.9 mb 0.00 in0.0 mm 0.00 in/hr0.0 mm/hr 0.00 in0.0 mm
10:40 AM 32.3°F0.2°C 30.0°F-1.1°C 91% 3.0 mph SE4.8 kmh SE 22.0 mph35.4 kmh 29.91 in1012.9 mb 0.00 in0.0 mm 0.00 in/hr0.0 mm/hr 0.00 in0.0 mm
10:35 AM 32.3°F0.2°C 30.0°F-1.1°C 91% 9.0 mph SSE14.5 kmh SSE 22.0 mph35.4 kmh 29.91 in1012.9 mb 0.00 in0.0 mm 0.00 in/hr0.0 mm/hr 0.00 in0.0 mm
10:30 AM 32.2°F0.1°C 29.9°F-1.2°C 91% 11.0 mph SSE17.7 kmh SSE 15.0 mph24.1 kmh 29.91 in1012.9 mb 0.00 in0.0 mm 0.00 in/hr0.0 mm/hr 0.00 in0.0 mm
10:25 AM 32.1°F0.1°C 29.8°F-1.2°C 91% 9.0 mph S14.5 kmh S 20.0 mph32.2 kmh 29.91 in1012.9 mb 0.00 in0.0 mm 0.00 in/hr0.0 mm/hr 0.00 in0.0 mm
10:20 AM 32.0°F0.0°C 29.7°F-1.3°C 91% 14.0 mph SE22.5 kmh SE 20.0 mph32.2 kmh 29.91 in1012.9 mb 0.00 in0.0 mm 0.00 in/hr0.0 mm/hr 0.00 in0.0 mm
10:15 AM 32.0°F0.0°C 29.7°F-1.3°C 91% 10.0 mph S16.1 kmh S 20.0 mph32.2 kmh 29.91 in1012.9 mb 0.00 in0.0 mm 0.00 in/hr0.0 mm/hr 0.00 in0.0 mm
10:10 AM 32.0°F0.0°C 29.9°F-1.2°C 92% 17.0 mph S27.4 kmh S 20.0 mph32.2 kmh 29.91 in1012.9 mb 0.00 in0.0 mm 0.00 in/hr0.0 mm/hr 0.00 in0.0 mm
10:05 AM 31.9°F-0.1°C 29.8°F-1.2°C 92% 5.0 mph SE8.0 kmh SE 16.0 mph25.7 kmh 29.91 in1012.9 mb 0.00 in0.0 mm 0.00 in/hr0.0 mm/hr 0.00 in0.0 mm
10:00 AM 31.8°F-0.1°C 29.5°F-1.4°C 91% 10.0 mph SE16.1 kmh SE 14.0 mph22.5 kmh 29.91 in1012.9 mb 0.00 in0.0 mm 0.00 in/hr0.0 mm/hr 0.00 in0.0 mm
09:55 AM 31.8°F-0.1°C 29.5°F-1.4°C 91% 8.0 mph S12.9 kmh S 23.0 mph37.0 kmh 29.91 in1012.9 mb 0.00 in0.0 mm 0.00 in/hr0.0 mm/hr 0.00 in0.0 mm
09:50 AM 31.7°F-0.2°C 29.4°F-1.4°C 91% 9.0 mph SE14.5 kmh SE 22.0 mph35.4 kmh 29.90 in1012.5 mb 0.00 in0.0 mm 0.00 in/hr0.0 mm/hr 0.00 in0.0 mm
09:45 AM 31.8°F-0.1°C 29.5°F-1.4°C 91% 7.0 mph ESE11.3 kmh ESE 21.0 mph33.8 kmh 29.90 in1012.5 mb 0.00 in0.0 mm 0.00 in/hr0.0 mm/hr 0.00 in0.0 mm
09:40 AM 31.7°F-0.2°C 29.4°F-1.4°C 91% 7.0 mph SSE11.3 kmh SSE 17.0 mph27.4 kmh 29.90 in1012.5 mb 0.00 in0.0 mm 0.00 in/hr0.0 mm/hr 0.00 in0.0 mm
09:35 AM 31.6°F-0.2°C 29.3°F-1.5°C 91% 5.0 mph SE8.0 kmh SE 17.0 mph27.4 kmh 29.91 in1012.9 mb 0.00 in0.0 mm 0.00 in/hr0.0 mm/hr 0.00 in0.0 mm
09:30 AM 31.6°F-0.2°C 29.6°F-1.3°C 92% 9.0 mph SE14.5 kmh SE 16.0 mph25.7 kmh 29.92 in1013.2 mb 0.00 in0.0 mm 0.00 in/hr0.0 mm/hr 0.00 in0.0 mm
09:25 AM 31.6°F-0.2°C 29.6°F-1.3°C 92% 4.0 mph SE6.4 kmh SE 20.0 mph32.2 kmh 29.92 in1013.2 mb 0.00 in0.0 mm 0.00 in/hr0.0 mm/hr 0.00 in0.0 mm
09:20 AM 31.6°F-0.2°C 29.6°F-1.3°C 92% 9.0 mph SSE14.5 kmh SSE 20.0 mph32.2 kmh 29.92 in1013.2 mb 0.00 in0.0 mm 0.00 in/hr0.0 mm/hr 0.00 in0.0 mm
09:15 AM 31.6°F-0.2°C 29.6°F-1.3°C 92% 3.0 mph SE4.8 kmh SE 19.0 mph30.6 kmh 29.93 in1013.5 mb 0.00 in0.0 mm 0.00 in/hr0.0 mm/hr 0.00 in0.0 mm
09:10 AM 31.5°F-0.3°C 29.5°F-1.4°C 92% 9.0 mph SSE14.5 kmh SSE 19.0 mph30.6 kmh 29.93 in1013.5 mb 0.00 in0.0 mm 0.00 in/hr0.0 mm/hr 0.00 in0.0 mm
09:05 AM 31.5°F-0.3°C 29.5°F-1.4°C 92% 7.0 mph SE11.3 kmh SE 18.0 mph29.0 kmh 29.93 in1013.5 mb 0.00 in0.0 mm 0.00 in/hr0.0 mm/hr 0.00 in0.0 mm
09:00 AM 31.4°F-0.3°C 29.4°F-1.4°C 92% 6.0 mph SSE9.7 kmh SSE 18.0 mph29.0 kmh 29.93 in1013.5 mb 0.00 in0.0 mm 0.00 in/hr0.0 mm/hr 0.00 in0.0 mm
08:55 AM 31.5°F-0.3°C 29.5°F-1.4°C 92% 8.0 mph SE12.9 kmh SE 20.0 mph32.2 kmh 29.94 in1013.9 mb 0.00 in0.0 mm 0.00 in/hr0.0 mm/hr 0.00 in0.0 mm
08:50 AM 31.5°F-0.3°C 29.5°F-1.4°C 92% 11.0 mph S17.7 kmh S 20.0 mph32.2 kmh 29.94 in1013.9 mb 0.00 in0.0 mm 0.00 in/hr0.0 mm/hr 0.00 in0.0 mm
08:45 AM 31.4°F-0.3°C 29.4°F-1.4°C 92% 7.0 mph S11.3 kmh S 20.0 mph32.2 kmh 29.94 in1013.9 mb 0.00 in0.0 mm 0.00 in/hr0.0 mm/hr 0.00 in0.0 mm
08:40 AM 31.4°F-0.3°C 29.4°F-1.4°C 92% 17.0 mph SE27.4 kmh SE 20.0 mph32.2 kmh 29.94 in1013.9 mb 0.00 in0.0 mm 0.00 in/hr0.0 mm/hr 0.00 in0.0 mm
08:35 AM 31.4°F-0.3°C 29.4°F-1.4°C 92% 7.0 mph SSE11.3 kmh SSE 20.0 mph32.2 kmh 29.95 in1014.2 mb 0.00 in0.0 mm 0.00 in/hr0.0 mm/hr 0.00 in0.0 mm
08:30 AM 31.4°F-0.3°C 29.4°F-1.4°C 92% 7.0 mph SSW11.3 kmh SSW 17.0 mph27.4 kmh 29.94 in1013.9 mb 0.00 in0.0 mm 0.00 in/hr0.0 mm/hr 0.00 in0.0 mm
08:25 AM 31.4°F-0.3°C 29.4°F-1.4°C 92% 4.0 mph S6.4 kmh S 20.0 mph32.2 kmh 29.94 in1013.9 mb 0.00 in0.0 mm 0.00 in/hr0.0 mm/hr 0.00 in0.0 mm
08:20 AM 31.3°F-0.4°C 29.3°F-1.5°C 92% 6.0 mph S9.7 kmh S 20.0 mph32.2 kmh 29.93 in1013.5 mb 0.00 in0.0 mm 0.00 in/hr0.0 mm/hr 0.00 in0.0 mm
08:15 AM 31.3°F-0.4°C 29.3°F-1.5°C 92% 14.0 mph ESE22.5 kmh ESE 20.0 mph32.2 kmh 29.94 in1013.9 mb 0.00 in0.0 mm 0.00 in/hr0.0 mm/hr 0.00 in0.0 mm
08:10 AM 31.4°F-0.3°C 29.4°F-1.4°C 92% 9.0 mph SSE14.5 kmh SSE 20.0 mph32.2 kmh 29.94 in1013.9 mb 0.00 in0.0 mm 0.00 in/hr0.0 mm/hr 0.00 in0.0 mm
08:05 AM 31.4°F-0.3°C 29.4°F-1.4°C 92% 10.0 mph SE16.1 kmh SE 20.0 mph32.2 kmh 29.94 in1013.9 mb 0.00 in0.0 mm 0.00 in/hr0.0 mm/hr 0.00 in0.0 mm
08:00 AM 31.5°F-0.3°C 29.5°F-1.4°C 92% 10.0 mph SSE16.1 kmh SSE 17.0 mph27.4 kmh 29.94 in1013.9 mb 0.00 in0.0 mm 0.00 in/hr0.0 mm/hr 0.00 in0.0 mm
07:55 AM 31.5°F-0.3°C 29.5°F-1.4°C 92% 14.0 mph SE22.5 kmh SE 23.0 mph37.0 kmh 29.94 in1013.9 mb 0.00 in0.0 mm 0.00 in/hr0.0 mm/hr 0.00 in0.0 mm
07:50 AM 31.5°F-0.3°C 29.5°F-1.4°C 92% 7.0 mph S11.3 kmh S 23.0 mph37.0 kmh 29.95 in1014.2 mb 0.00 in0.0 mm 0.00 in/hr0.0 mm/hr 0.00 in0.0 mm
07:45 AM 31.6°F-0.2°C 29.6°F-1.3°C 92% 9.0 mph SE14.5 kmh SE 22.0 mph35.4 kmh 29.95 in1014.2 mb 0.00 in0.0 mm 0.00 in/hr0.0 mm/hr 0.00 in0.0 mm
07:40 AM 31.6°F-0.2°C 29.6°F-1.3°C 92% 5.0 mph SSE8.0 kmh SSE 22.0 mph35.4 kmh 29.95 in1014.2 mb 0.00 in0.0 mm 0.00 in/hr0.0 mm/hr 0.00 in0.0 mm
07:35 AM 31.6°F-0.2°C 29.6°F-1.3°C 92% 11.0 mph S17.7 kmh S 22.0 mph35.4 kmh 29.95 in1014.2 mb 0.00 in0.0 mm 0.00 in/hr0.0 mm/hr 0.00 in0.0 mm
07:30 AM 31.5°F-0.3°C 29.5°F-1.4°C 92% 7.0 mph S11.3 kmh S 22.0 mph35.4 kmh 29.96 in1014.6 mb 0.00 in0.0 mm 0.00 in/hr0.0 mm/hr 0.00 in0.0 mm
07:25 AM 31.6°F-0.2°C 29.6°F-1.3°C 92% 5.0 mph SSE8.0 kmh SSE 23.0 mph37.0 kmh 29.96 in1014.6 mb 0.00 in0.0 mm 0.00 in/hr0.0 mm/hr 0.00 in0.0 mm
07:20 AM 31.6°F-0.2°C 29.6°F-1.3°C 92% 7.0 mph ESE11.3 kmh ESE 20.0 mph32.2 kmh 29.96 in1014.6 mb 0.00 in0.0 mm 0.00 in/hr0.0 mm/hr 0.00 in0.0 mm
07:15 AM 31.6°F-0.2°C 29.6°F-1.3°C 92% 13.0 mph SE20.9 kmh SE 20.0 mph32.2 kmh 29.97 in1014.9 mb 0.00 in0.0 mm 0.00 in/hr0.0 mm/hr 0.00 in0.0 mm
07:10 AM 31.5°F-0.3°C 29.5°F-1.4°C 92% 3.0 mph S4.8 kmh S 20.0 mph32.2 kmh 29.97 in1014.9 mb 0.00 in0.0 mm 0.00 in/hr0.0 mm/hr 0.00 in0.0 mm
07:05 AM 31.6°F-0.2°C 29.6°F-1.3°C 92% 6.0 mph E9.7 kmh E 20.0 mph32.2 kmh 29.97 in1014.9 mb 0.00 in0.0 mm 0.00 in/hr0.0 mm/hr 0.00 in0.0 mm
07:00 AM 31.6°F-0.2°C 29.6°F-1.3°C 92% 14.0 mph S22.5 kmh S 20.0 mph32.2 kmh 29.97 in1014.9 mb 0.00 in0.0 mm 0.00 in/hr0.0 mm/hr 0.00 in0.0 mm
06:55 AM 31.7°F-0.2°C 29.7°F-1.3°C 92% 11.0 mph S17.7 kmh S 21.0 mph33.8 kmh 29.97 in1014.9 mb 0.00 in0.0 mm 0.00 in/hr0.0 mm/hr 0.00 in0.0 mm
06:50 AM 31.7°F-0.2°C 29.7°F-1.3°C 92% 6.0 mph SSE9.7 kmh SSE 21.0 mph33.8 kmh 29.98 in1015.2 mb 0.00 in0.0 mm 0.00 in/hr0.0 mm/hr 0.00 in0.0 mm
06:45 AM 31.7°F-0.2°C 29.7°F-1.3°C 92% 4.0 mph SE6.4 kmh SE 21.0 mph33.8 kmh 29.97 in1014.9 mb 0.00 in0.0 mm 0.00 in/hr0.0 mm/hr 0.00 in0.0 mm
06:40 AM 31.7°F-0.2°C 29.7°F-1.3°C 92% 5.0 mph S8.0 kmh S 21.0 mph33.8 kmh 29.98 in1015.2 mb 0.00 in0.0 mm 0.00 in/hr0.0 mm/hr 0.00 in0.0 mm
06:35 AM 31.7°F-0.2°C 29.7°F-1.3°C 92% 5.0 mph SE8.0 kmh SE 21.0 mph33.8 kmh 29.98 in1015.2 mb 0.00 in0.0 mm 0.00 in/hr0.0 mm/hr 0.00 in0.0 mm
06:30 AM 31.7°F-0.2°C 29.7°F-1.3°C 92% 9.0 mph SSE14.5 kmh SSE 21.0 mph33.8 kmh 29.98 in1015.2 mb 0.00 in0.0 mm 0.00 in/hr0.0 mm/hr 0.00 in0.0 mm
06:25 AM 31.7°F-0.2°C 29.7°F-1.3°C 92% 10.0 mph SE16.1 kmh SE 23.0 mph37.0 kmh 29.98 in1015.2 mb 0.00 in0.0 mm 0.00 in/hr0.0 mm/hr 0.00 in0.0 mm
06:20 AM 31.6°F-0.2°C 29.6°F-1.3°C 92% 10.0 mph SSE16.1 kmh SSE 23.0 mph37.0 kmh 29.98 in1015.2 mb 0.00 in0.0 mm 0.00 in/hr0.0 mm/hr 0.00 in0.0 mm
06:15 AM 31.7°F-0.2°C 29.4°F-1.4°C 91% 8.0 mph S12.9 kmh S 23.0 mph37.0 kmh 29.98 in1015.2 mb 0.00 in0.0 mm 0.00 in/hr0.0 mm/hr 0.00 in0.0 mm
06:10 AM 31.7°F-0.2°C 29.4°F-1.4°C 91% 13.0 mph S20.9 kmh S 23.0 mph37.0 kmh 29.98 in1015.2 mb 0.00 in0.0 mm 0.00 in/hr0.0 mm/hr 0.00 in0.0 mm
06:05 AM 31.7°F-0.2°C 29.4°F-1.4°C 91% 4.0 mph S6.4 kmh S 17.0 mph27.4 kmh 29.98 in1015.2 mb 0.00 in0.0 mm 0.00 in/hr0.0 mm/hr 0.00 in0.0 mm
06:00 AM 31.7°F-0.2°C 29.4°F-1.4°C 91% 10.0 mph S16.1 kmh S 14.0 mph22.5 kmh 29.98 in1015.2 mb 0.00 in0.0 mm 0.00 in/hr0.0 mm/hr 0.00 in0.0 mm
05:55 AM 31.8°F-0.1°C 29.5°F-1.4°C 91% 6.0 mph SE9.7 kmh SE 21.0 mph33.8 kmh 29.98 in1015.2 mb 0.00 in0.0 mm 0.00 in/hr0.0 mm/hr 0.00 in0.0 mm
05:50 AM 31.8°F-0.1°C 29.5°F-1.4°C 91% 4.0 mph SSE6.4 kmh SSE 19.0 mph30.6 kmh 29.98 in1015.2 mb 0.00 in0.0 mm 0.00 in/hr0.0 mm/hr 0.00 in0.0 mm
05:45 AM 31.8°F-0.1°C 29.5°F-1.4°C 91% 8.0 mph SSE12.9 kmh SSE 17.0 mph27.4 kmh 29.99 in1015.6 mb 0.00 in0.0 mm 0.00 in/hr0.0 mm/hr 0.00 in0.0 mm
05:40 AM 31.8°F-0.1°C 29.5°F-1.4°C 91% 10.0 mph SE16.1 kmh SE 17.0 mph27.4 kmh 29.99 in1015.6 mb 0.00 in0.0 mm 0.00 in/hr0.0 mm/hr 0.00 in0.0 mm
05:35 AM 31.8°F-0.1°C 29.5°F-1.4°C 91% 5.0 mph SE8.0 kmh SE 17.0 mph27.4 kmh 29.98 in1015.2 mb 0.00 in0.0 mm 0.00 in/hr0.0 mm/hr 0.00 in0.0 mm
05:30 AM 31.8°F-0.1°C 29.8°F-1.2°C 92% 11.0 mph SE17.7 kmh SE 17.0 mph27.4 kmh 29.98 in1015.2 mb 0.00 in0.0 mm 0.00 in/hr0.0 mm/hr 0.00 in0.0 mm
05:25 AM 31.9°F-0.1°C 29.8°F-1.2°C 92% 8.0 mph SE12.9 kmh SE 21.0 mph33.8 kmh 29.99 in1015.6 mb 0.00 in0.0 mm 0.00 in/hr0.0 mm/hr 0.00 in0.0 mm
05:20 AM 31.8°F-0.1°C 29.5°F-1.4°C 91% 4.0 mph SE6.4 kmh SE 21.0 mph33.8 kmh 29.99 in1015.6 mb 0.00 in0.0 mm 0.00 in/hr0.0 mm/hr 0.00 in0.0 mm
05:15 AM 31.9°F-0.1°C 29.6°F-1.3°C 91% 10.0 mph SE16.1 kmh SE 19.0 mph30.6 kmh 29.99 in1015.6 mb 0.00 in0.0 mm 0.00 in/hr0.0 mm/hr 0.00 in0.0 mm
05:10 AM 32.0°F0.0°C 29.7°F-1.3°C 91% 7.0 mph SE11.3 kmh SE 18.0 mph29.0 kmh 29.99 in1015.6 mb 0.00 in0.0 mm 0.00 in/hr0.0 mm/hr 0.00 in0.0 mm
05:05 AM 31.9°F-0.1°C 29.6°F-1.3°C 91% 15.0 mph SSE24.1 kmh SSE 15.0 mph24.1 kmh 29.99 in1015.6 mb 0.00 in0.0 mm 0.00 in/hr0.0 mm/hr 0.00 in0.0 mm
05:00 AM 32.0°F0.0°C 29.7°F-1.3°C 91% 8.0 mph SSW12.9 kmh SSW 14.0 mph22.5 kmh 29.99 in1015.6 mb 0.00 in0.0 mm 0.00 in/hr0.0 mm/hr 0.00 in0.0 mm
04:55 AM 32.1°F0.1°C 29.8°F-1.2°C 91% 9.0 mph SSE14.5 kmh SSE 17.0 mph27.4 kmh 30.00 in1015.9 mb 0.00 in0.0 mm 0.00 in/hr0.0 mm/hr 0.00 in0.0 mm
04:50 AM 32.1°F0.1°C 29.8°F-1.2°C 91% 7.0 mph SE11.3 kmh SE 17.0 mph27.4 kmh 30.00 in1015.9 mb 0.00 in0.0 mm 0.00 in/hr0.0 mm/hr 0.00 in0.0 mm
04:45 AM 32.1°F0.1°C 29.8°F-1.2°C 91% 11.0 mph SSE17.7 kmh SSE 17.0 mph27.4 kmh 30.01 in1016.3 mb 0.00 in0.0 mm 0.00 in/hr0.0 mm/hr 0.00 in0.0 mm
04:40 AM 32.1°F0.1°C 29.8°F-1.2°C 91% 10.0 mph SSE16.1 kmh SSE 17.0 mph27.4 kmh 30.01 in1016.3 mb 0.00 in0.0 mm 0.00 in/hr0.0 mm/hr 0.00 in0.0 mm
04:35 AM 32.1°F0.1°C 29.8°F-1.2°C 91% 10.0 mph SE16.1 kmh SE 16.0 mph25.7 kmh 30.00 in1015.9 mb 0.00 in0.0 mm 0.00 in/hr0.0 mm/hr 0.00 in0.0 mm
04:30 AM 32.2°F0.1°C 29.9°F-1.2°C 91% 6.0 mph SE9.7 kmh SE 12.0 mph19.3 kmh 30.00 in1015.9 mb 0.00 in0.0 mm 0.00 in/hr0.0 mm/hr 0.00 in0.0 mm
04:25 AM 32.2°F0.1°C 29.9°F-1.2°C 91% 6.0 mph SSE9.7 kmh SSE 17.0 mph27.4 kmh 30.00 in1015.9 mb 0.00 in0.0 mm 0.00 in/hr0.0 mm/hr 0.00 in0.0 mm
04:20 AM 32.2°F0.1°C 29.9°F-1.2°C 91% 5.0 mph SE8.0 kmh SE 17.0 mph27.4 kmh 30.01 in1016.3 mb 0.00 in0.0 mm 0.00 in/hr0.0 mm/hr 0.00 in0.0 mm
04:15 AM 32.2°F0.1°C 29.9°F-1.2°C 91% 6.0 mph S9.7 kmh S 17.0 mph27.4 kmh 30.01 in1016.3 mb 0.00 in0.0 mm 0.00 in/hr0.0 mm/hr 0.00 in0.0 mm
04:10 AM 32.2°F0.1°C 29.9°F-1.2°C 91% 10.0 mph SSW16.1 kmh SSW 17.0 mph27.4 kmh 30.01 in1016.3 mb 0.00 in0.0 mm 0.00 in/hr0.0 mm/hr 0.00 in0.0 mm
04:05 AM 32.2°F0.1°C 29.9°F-1.2°C 91% 6.0 mph S9.7 kmh S 17.0 mph27.4 kmh 30.01 in1016.3 mb 0.00 in0.0 mm 0.00 in/hr0.0 mm/hr 0.00 in0.0 mm
04:00 AM 32.2°F0.1°C 29.9°F-1.2°C 91% 4.0 mph SSE6.4 kmh SSE 10.0 mph16.1 kmh 30.01 in1016.3 mb 0.00 in0.0 mm 0.00 in/hr0.0 mm/hr 0.00 in0.0 mm
03:55 AM 32.2°F0.1°C 29.9°F-1.2°C 91% 8.0 mph SSE12.9 kmh SSE 18.0 mph29.0 kmh 30.02 in1016.6 mb 0.00 in0.0 mm 0.00 in/hr0.0 mm/hr 0.00 in0.0 mm
03:50 AM 32.2°F0.1°C 29.9°F-1.2°C 91% 8.0 mph S12.9 kmh S 18.0 mph29.0 kmh 30.02 in1016.6 mb 0.00 in0.0 mm 0.00 in/hr0.0 mm/hr 0.00 in0.0 mm
03:45 AM 32.4°F0.2°C 30.1°F-1.1°C 91% 8.0 mph S12.9 kmh S 18.0 mph29.0 kmh 30.02 in1016.6 mb 0.00 in0.0 mm 0.00 in/hr0.0 mm/hr 0.00 in0.0 mm
03:40 AM 32.3°F0.2°C 30.0°F-1.1°C 91% 4.0 mph E6.4 kmh E 18.0 mph29.0 kmh 30.03 in1016.9 mb 0.00 in0.0 mm 0.00 in/hr0.0 mm/hr 0.00 in0.0 mm
03:35 AM 32.2°F0.1°C 29.9°F-1.2°C 91% 3.0 mph SSE4.8 kmh SSE 18.0 mph29.0 kmh 30.03 in1016.9 mb 0.00 in0.0 mm 0.00 in/hr0.0 mm/hr 0.00 in0.0 mm
03:30 AM 32.3°F0.2°C 30.0°F-1.1°C 91% 7.0 mph SE11.3 kmh SE 8.0 mph12.9 kmh 30.04 in1017.3 mb 0.00 in0.0 mm 0.00 in/hr0.0 mm/hr 0.00 in0.0 mm
03:25 AM 32.3°F0.2°C 30.0°F-1.1°C 91% 8.0 mph SE12.9 kmh SE 17.0 mph27.4 kmh 30.04 in1017.3 mb 0.00 in0.0 mm 0.00 in/hr0.0 mm/hr 0.00 in0.0 mm
03:20 AM 32.3°F0.2°C 30.0°F-1.1°C 91% 6.0 mph SSE9.7 kmh SSE 17.0 mph27.4 kmh 30.04 in1017.3 mb 0.00 in0.0 mm 0.00 in/hr0.0 mm/hr 0.00 in0.0 mm
03:15 AM 32.3°F0.2°C 30.0°F-1.1°C 91% 6.0 mph SE9.7 kmh SE 17.0 mph27.4 kmh 30.04 in1017.3 mb 0.00 in0.0 mm 0.00 in/hr0.0 mm/hr 0.00 in0.0 mm
03:10 AM 32.3°F0.2°C 30.0°F-1.1°C 91% 5.0 mph S8.0 kmh S 17.0 mph27.4 kmh 30.05 in1017.6 mb 0.00 in0.0 mm 0.00 in/hr0.0 mm/hr 0.00 in0.0 mm
03:05 AM 32.4°F0.2°C 30.1°F-1.1°C 91% 7.0 mph SE11.3 kmh SE 16.0 mph25.7 kmh 30.05 in1017.6 mb 0.00 in0.0 mm 0.00 in/hr0.0 mm/hr 0.00 in0.0 mm
03:00 AM 32.3°F0.2°C 30.0°F-1.1°C 91% 12.0 mph SSE19.3 kmh SSE 16.0 mph25.7 kmh 30.05 in1017.6 mb 0.00 in0.0 mm 0.00 in/hr0.0 mm/hr 0.00 in0.0 mm
02:55 AM 32.4°F0.2°C 30.1°F-1.1°C 91% 6.0 mph SSE9.7 kmh SSE 17.0 mph27.4 kmh 30.06 in1017.9 mb 0.00 in0.0 mm 0.00 in/hr0.0 mm/hr 0.00 in0.0 mm
02:50 AM 32.4°F0.2°C 30.1°F-1.1°C 91% 4.0 mph SE6.4 kmh SE 17.0 mph27.4 kmh 30.06 in1017.9 mb 0.00 in0.0 mm 0.00 in/hr0.0 mm/hr 0.00 in0.0 mm
02:45 AM 32.4°F0.2°C 30.1°F-1.1°C 91% 5.0 mph SSE8.0 kmh SSE 17.0 mph27.4 kmh 30.06 in1017.9 mb 0.00 in0.0 mm 0.00 in/hr0.0 mm/hr 0.00 in0.0 mm
02:40 AM 32.4°F0.2°C 30.1°F-1.1°C 91% 10.0 mph SSE16.1 kmh SSE 17.0 mph27.4 kmh 30.06 in1017.9 mb 0.00 in0.0 mm 0.00 in/hr0.0 mm/hr 0.00 in0.0 mm
02:35 AM 32.4°F0.2°C 30.1°F-1.1°C 91% 6.0 mph SSE9.7 kmh SSE 17.0 mph27.4 kmh 30.06 in1017.9 mb 0.00 in0.0 mm 0.00 in/hr0.0 mm/hr 0.00 in0.0 mm
02:30 AM 32.4°F0.2°C 30.1°F-1.1°C 91% 2.0 mph SE3.2 kmh SE 11.0 mph17.7 kmh 30.07 in1018.3 mb 0.00 in0.0 mm 0.00 in/hr0.0 mm/hr 0.00 in0.0 mm
02:25 AM 32.3°F0.2°C 30.0°F-1.1°C 91% 15.0 mph S24.1 kmh S 19.0 mph30.6 kmh 30.07 in1018.3 mb 0.00 in0.0 mm 0.00 in/hr0.0 mm/hr 0.00 in0.0 mm
02:20 AM 32.3°F0.2°C 30.0°F-1.1°C 91% 16.0 mph SE25.7 kmh SE 18.0 mph29.0 kmh 30.07 in1018.3 mb 0.00 in0.0 mm 0.00 in/hr0.0 mm/hr 0.00 in0.0 mm
02:15 AM 32.3°F0.2°C 30.0°F-1.1°C 91% 7.0 mph SSE11.3 kmh SSE 15.0 mph24.1 kmh 30.07 in1018.3 mb 0.00 in0.0 mm 0.00 in/hr0.0 mm/hr 0.00 in0.0 mm
02:10 AM 32.4°F0.2°C 30.1°F-1.1°C 91% 4.0 mph SE6.4 kmh SE 15.0 mph24.1 kmh 30.07 in1018.3 mb 0.00 in0.0 mm 0.00 in/hr0.0 mm/hr 0.00 in0.0 mm
02:05 AM 32.4°F0.2°C 30.1°F-1.1°C 91% 6.0 mph SE9.7 kmh SE 12.0 mph19.3 kmh 30.06 in1017.9 mb 0.00 in0.0 mm 0.00 in/hr0.0 mm/hr 0.00 in0.0 mm
02:00 AM 32.4°F0.2°C 30.1°F-1.1°C 91% 7.0 mph S11.3 kmh S 12.0 mph19.3 kmh 30.06 in1017.9 mb 0.00 in0.0 mm 0.00 in/hr0.0 mm/hr 0.00 in0.0 mm
01:55 AM 32.4°F0.2°C 30.1°F-1.1°C 91% 5.0 mph S8.0 kmh S 16.0 mph25.7 kmh 30.06 in1017.9 mb 0.00 in0.0 mm 0.00 in/hr0.0 mm/hr 0.00 in0.0 mm
01:50 AM 32.5°F0.3°C 30.2°F-1.0°C 91% 5.0 mph SSE8.0 kmh SSE 16.0 mph25.7 kmh 30.06 in1017.9 mb 0.00 in0.0 mm 0.00 in/hr0.0 mm/hr 0.00 in0.0 mm
01:45 AM 32.4°F0.2°C 30.1°F-1.1°C 91% 5.0 mph SE8.0 kmh SE 15.0 mph24.1 kmh 30.06 in1017.9 mb 0.00 in0.0 mm 0.00 in/hr0.0 mm/hr 0.00 in0.0 mm
01:40 AM 32.4°F0.2°C 30.1°F-1.1°C 91% 10.0 mph SSE16.1 kmh SSE 14.0 mph22.5 kmh 30.06 in1017.9 mb 0.00 in0.0 mm 0.00 in/hr0.0 mm/hr 0.00 in0.0 mm
01:35 AM 32.4°F0.2°C 30.1°F-1.1°C 91% 9.0 mph SE14.5 kmh SE 14.0 mph22.5 kmh 30.06 in1017.9 mb 0.00 in0.0 mm 0.00 in/hr0.0 mm/hr 0.00 in0.0 mm
01:30 AM 32.4°F0.2°C 30.1°F-1.1°C 91% 6.0 mph SE9.7 kmh SE 14.0 mph22.5 kmh 30.06 in1017.9 mb 0.00 in0.0 mm 0.00 in/hr0.0 mm/hr 0.00 in0.0 mm
01:25 AM 32.5°F0.3°C 30.2°F-1.0°C 91% 5.0 mph SSE8.0 kmh SSE 23.0 mph37.0 kmh 30.06 in1017.9 mb 0.00 in0.0 mm 0.00 in/hr0.0 mm/hr 0.00 in0.0 mm
01:20 AM 32.5°F0.3°C 30.2°F-1.0°C 91% 8.0 mph SE12.9 kmh SE 23.0 mph37.0 kmh 30.06 in1017.9 mb 0.00 in0.0 mm 0.00 in/hr0.0 mm/hr 0.00 in0.0 mm
01:15 AM 32.5°F0.3°C 30.2°F-1.0°C 91% 9.0 mph SE14.5 kmh SE 23.0 mph37.0 kmh 30.06 in1017.9 mb 0.00 in0.0 mm 0.00 in/hr0.0 mm/hr 0.00 in0.0 mm
01:10 AM 32.5°F0.3°C 30.2°F-1.0°C 91% 7.0 mph SSE11.3 kmh SSE 23.0 mph37.0 kmh 30.07 in1018.3 mb 0.00 in0.0 mm 0.00 in/hr0.0 mm/hr 0.00 in0.0 mm
01:05 AM 32.5°F0.3°C 30.2°F-1.0°C 91% 11.0 mph SE17.7 kmh SE 23.0 mph37.0 kmh 30.07 in1018.3 mb 0.00 in0.0 mm 0.00 in/hr0.0 mm/hr 0.00 in0.0 mm
01:00 AM 32.4°F0.2°C 30.1°F-1.1°C 91% 3.0 mph SE4.8 kmh SE 8.0 mph12.9 kmh 30.07 in1018.3 mb 0.00 in0.0 mm 0.00 in/hr0.0 mm/hr 0.00 in0.0 mm
12:55 AM 32.4°F0.2°C 30.1°F-1.1°C 91% 8.0 mph SE12.9 kmh SE 17.0 mph27.4 kmh 30.07 in1018.3 mb 0.00 in0.0 mm 0.00 in/hr0.0 mm/hr 0.00 in0.0 mm
12:50 AM 32.5°F0.3°C 30.2°F-1.0°C 91% 5.0 mph SE8.0 kmh SE 17.0 mph27.4 kmh 30.07 in1018.3 mb 0.00 in0.0 mm 0.00 in/hr0.0 mm/hr 0.00 in0.0 mm
12:45 AM 32.4°F0.2°C 30.1°F-1.1°C 91% 7.0 mph S11.3 kmh S 17.0 mph27.4 kmh 30.07 in1018.3 mb 0.00 in0.0 mm 0.00 in/hr0.0 mm/hr 0.00 in0.0 mm
12:40 AM 32.5°F0.3°C 30.2°F-1.0°C 91% 12.0 mph SE19.3 kmh SE 17.0 mph27.4 kmh 30.07 in1018.3 mb 0.00 in0.0 mm 0.00 in/hr0.0 mm/hr 0.00 in0.0 mm
12:30 AM 32.7°F0.4°C 30.4°F-0.9°C 91% 10.0 mph SE16.1 kmh SE 14.0 mph22.5 kmh 30.07 in1018.3 mb 0.00 in0.0 mm 0.00 in/hr0.0 mm/hr 0.00 in0.0 mm
12:25 AM 32.7°F0.4°C 30.4°F-0.9°C 91% 8.0 mph SE12.9 kmh SE 19.0 mph30.6 kmh 30.08 in1018.6 mb 0.00 in0.0 mm 0.00 in/hr0.0 mm/hr 0.00 in0.0 mm
12:20 AM 32.6°F0.3°C 30.3°F-0.9°C 91% 10.0 mph SSE16.1 kmh SSE 19.0 mph30.6 kmh 30.08 in1018.6 mb 0.00 in0.0 mm 0.00 in/hr0.0 mm/hr 0.00 in0.0 mm
12:15 AM 32.6°F0.3°C 30.3°F-0.9°C 91% 19.0 mph SE30.6 kmh SE 19.0 mph30.6 kmh 30.08 in1018.6 mb 0.00 in0.0 mm 0.00 in/hr0.0 mm/hr 0.00 in0.0 mm
12:10 AM 32.6°F0.3°C 30.3°F-0.9°C 91% 7.0 mph ESE11.3 kmh ESE 16.0 mph25.7 kmh 30.08 in1018.6 mb 0.00 in0.0 mm 0.00 in/hr0.0 mm/hr 0.00 in0.0 mm
12:05 AM 32.7°F0.4°C 30.4°F-0.9°C 91% 13.0 mph SE20.9 kmh SE 14.0 mph22.5 kmh 30.08 in1018.6 mb 0.00 in0.0 mm 0.00 in/hr0.0 mm/hr 0.00 in0.0 mm
12:00 AM 32.7°F0.4°C 30.4°F-0.9°C 91% 6.0 mph S9.7 kmh S 14.0 mph22.5 kmh 30.08 in1018.6 mb 0.00 in0.0 mm 0.00 in/hr0.0 mm/hr 0.00 in0.0 mm